Time;durP1;ratioP1;P1;durP2;ratioP2;P2;SDS_P1;SDS_P2;PMS_P1;PMS_P2;Temp;Humidity;BMP_temperature;BMP_pressure;BME280_temperature;BME280_humidity;BME280_pressure;Samples;Min_cycle;Max_cycle;Signal;HPM_P1;HPM_P2
2023/05/14 00:01:11;;;;;;;10.17;9.27;;;14.20;99.90;;;;;;5055610;28;20415;-72
2023/05/14 00:03:38;;;;;;;12.03;10.90;;;14.20;99.90;;;;;;5054295;28;20252;-72
2023/05/14 00:06:04;;;;;;;9.97;9.10;;;14.20;99.90;;;;;;5065522;28;20194;-73
2023/05/14 00:08:29;;;;;;;9.70;8.80;;;14.30;99.90;;;;;;5078293;28;20451;-72
2023/05/14 00:10:55;;;;;;;11.33;10.27;;;14.30;99.90;;;;;;5078299;28;20202;-73
2023/05/14 00:13:20;;;;;;;11.40;10.30;;;14.30;99.90;;;;;;5041415;28;20672;-73
2023/05/14 00:15:46;;;;;;;10.27;9.40;;;14.30;99.90;;;;;;5037918;28;20285;-73
2023/05/14 00:18:12;;;;;;;11.93;10.70;;;14.30;99.90;;;;;;5037592;28;20184;-73
2023/05/14 00:20:37;;;;;;;10.73;9.83;;;14.40;99.90;;;;;;5047060;28;20238;-73
2023/05/14 00:23:03;;;;;;;12.20;11.10;;;14.30;99.90;;;;;;5078722;28;20263;-73
2023/05/14 00:25:29;;;;;;;11.17;10.13;;;14.30;99.90;;;;;;5078020;28;20184;-73
2023/05/14 00:27:54;;;;;;;15.00;11.97;;;14.30;99.90;;;;;;5078294;28;20192;-73
2023/05/14 00:30:20;;;;;;;14.00;12.80;;;14.30;99.90;;;;;;5055454;28;20188;-74
2023/05/14 00:32:45;;;;;;;13.77;12.47;;;14.20;99.90;;;;;;5044379;28;20255;-72
2023/05/14 00:35:11;;;;;;;11.43;10.33;;;14.20;99.90;;;;;;5033357;28;20248;-73
2023/05/14 00:37:36;;;;;;;11.13;10.10;;;14.20;99.90;;;;;;5033733;28;20201;-73
2023/05/14 00:40:02;;;;;;;12.00;10.90;;;14.20;99.90;;;;;;5033617;28;20186;-72
2023/05/14 00:42:28;;;;;;;14.87;12.87;;;14.30;99.90;;;;;;5032041;28;20267;-73
2023/05/14 00:44:54;;;;;;;10.30;9.50;;;14.40;99.90;;;;;;5033418;28;20475;-73
2023/05/14 00:47:19;;;;;;;12.37;11.37;;;14.40;99.90;;;;;;5033054;28;20173;-73
2023/05/14 00:49:45;;;;;;;12.30;11.20;;;14.30;99.90;;;;;;5032699;28;20193;-73
2023/05/14 00:52:11;;;;;;;11.20;10.30;;;14.20;99.90;;;;;;5050309;28;20235;-73
2023/05/14 00:54:37;;;;;;;13.33;12.13;;;14.10;99.90;;;;;;5053560;28;20170;-73
2023/05/14 00:57:04;;;;;;;12.37;11.27;;;14.10;99.90;;;;;;5052954;28;20437;-72
2023/05/14 00:59:30;;;;;;;12.40;11.30;;;14.10;99.90;;;;;;5053199;28;20555;-73
2023/05/14 01:01:55;;;;;;;11.60;10.60;;;14.10;99.90;;;;;;5052833;28;20437;-73
2023/05/14 01:04:21;;;;;;;13.83;12.50;;;14.10;99.90;;;;;;5053092;28;20173;-73
2023/05/14 01:07:07;;;;;;;13.23;11.70;;;14.00;99.90;;;;;;5052931;28;20202;-73
2023/05/14 01:09:46;;;;;;;14.10;12.77;;;13.90;99.90;;;;;;5054219;28;20184;-73
2023/05/14 01:12:47;;;;;;;14.03;12.70;;;13.90;99.90;;;;;;5053311;28;20879;-72
2023/05/14 01:15:22;;;;;;;13.63;12.43;;;13.80;99.90;;;;;;5042148;28;20457;-73
2023/05/14 01:17:58;;;;;;;12.90;11.70;;;13.70;99.90;;;;;;5052635;28;20411;-72
2023/05/14 01:20:25;;;;;;;13.10;11.90;;;13.50;99.90;;;;;;5052931;28;20768;-73
2023/05/14 01:22:51;;;;;;;15.67;14.20;;;13.40;99.90;;;;;;5053080;28;20461;-73
2023/05/14 01:25:17;;;;;;;13.20;12.10;;;13.40;99.90;;;;;;5052923;28;20455;-73
2023/05/14 01:28:02;;;;;;;14.00;12.70;;;13.40;99.90;;;;;;5052927;28;20412;-71
2023/05/14 01:30:38;;;;;;;14.00;12.70;;;13.20;99.90;;;;;;5052982;28;20433;-73
2023/05/14 01:33:13;;;;;;;15.03;13.67;;;13.20;99.90;;;;;;5052494;28;20908;-72
2023/05/14 01:35:39;;;;;;;16.40;14.90;;;13.10;99.90;;;;;;5052853;28;20429;-72
2023/05/14 01:38:08;;;;;;;13.43;12.23;;;12.90;99.90;;;;;;5052863;28;20465;-72
2023/05/14 01:40:35;;;;;;;13.57;12.23;;;12.90;99.90;;;;;;5034673;28;20452;-72
2023/05/14 01:43:02;;;;;;;12.93;11.83;;;12.90;99.90;;;;;;5052802;28;20418;-72
2023/05/14 01:45:28;;;;;;;16.03;14.57;;;12.80;99.90;;;;;;5052456;28;20432;-72
2023/05/14 01:47:54;;;;;;;15.27;13.67;;;12.70;99.90;;;;;;5052228;28;20413;-72
2023/05/14 01:50:20;;;;;;;16.10;14.57;;;12.40;99.90;;;;;;5052310;28;20947;-73
2023/05/14 01:52:47;;;;;;;14.60;13.30;;;12.40;99.90;;;;;;5034551;28;20538;-72
2023/05/14 01:55:12;;;;;;;15.83;14.27;;;12.40;99.90;;;;;;5052395;28;20670;-72
2023/05/14 01:57:38;;;;;;;17.60;15.90;;;12.40;99.90;;;;;;5052674;28;20409;-72
2023/05/14 02:00:04;;;;;;;16.80;15.17;;;12.40;99.90;;;;;;5052383;28;20224;-72
2023/05/14 02:02:30;;;;;;;16.00;14.60;;;12.30;99.90;;;;;;5055504;28;20256;-72
2023/05/14 02:04:55;;;;;;;15.90;14.40;;;12.40;99.90;;;;;;5020378;28;20834;-72
2023/05/14 02:07:21;;;;;;;16.90;15.33;;;12.30;99.90;;;;;;5016298;28;20183;-72
2023/05/14 02:09:46;;;;;;;16.80;15.27;;;12.30;99.90;;;;;;5016577;28;20206;-72
2023/05/14 02:12:12;;;;;;;14.63;13.23;;;12.30;99.90;;;;;;5016702;28;20182;-73
2023/05/14 02:14:37;;;;;;;16.60;15.10;;;12.30;99.90;;;;;;5016260;28;20254;-73
2023/05/14 02:17:03;;;;;;;18.67;16.90;;;12.30;99.90;;;;;;5016215;28;20199;-72
2023/05/14 02:19:29;;;;;;;16.50;14.90;;;12.30;99.90;;;;;;5016268;28;20176;-72
2023/05/14 02:21:54;;;;;;;17.23;15.40;;;12.40;99.90;;;;;;5046246;28;20240;-73
2023/05/14 02:24:20;;;;;;;15.87;14.40;;;12.40;99.90;;;;;;5056163;28;20237;-73
2023/05/14 02:26:46;;;;;;;14.90;13.50;;;12.40;99.90;;;;;;5056039;28;20214;-73
2023/05/14 02:29:11;;;;;;;14.03;12.83;;;12.50;99.90;;;;;;5055944;28;20163;-73
2023/05/14 02:31:37;;;;;;;15.23;13.77;;;12.50;99.90;;;;;;5054218;28;20184;-73
2023/05/14 02:34:04;;;;;;;12.37;11.33;;;12.50;99.90;;;;;;5035436;28;20167;-72
2023/05/14 02:36:29;;;;;;;13.80;12.50;;;12.50;99.90;;;;;;5035970;28;20720;-73
2023/05/14 02:38:57;;;;;;;16.47;14.87;;;12.60;99.90;;;;;;5038481;28;20410;-72
2023/05/14 02:41:22;;;;;;;15.23;13.83;;;12.60;99.90;;;;;;5036129;28;20239;-73
2023/05/14 02:43:48;;;;;;;14.43;13.03;;;12.50;99.90;;;;;;5035738;28;20409;-73
2023/05/14 02:46:14;;;;;;;13.23;12.10;;;12.60;99.90;;;;;;5033872;28;20195;-73
2023/05/14 02:48:39;;;;;;;16.27;14.77;;;12.70;99.90;;;;;;5035609;28;20165;-73
2023/05/14 02:51:06;;;;;;;15.80;14.40;;;12.80;99.90;;;;;;5043650;28;20576;-73
2023/05/14 02:53:32;;;;;;;14.17;12.97;;;12.80;99.90;;;;;;5055386;28;20164;-73
2023/05/14 02:55:57;;;;;;;13.03;11.93;;;12.90;99.90;;;;;;5055254;28;20436;-73
2023/05/14 02:58:23;;;;;;;14.30;12.90;;;12.90;99.90;;;;;;5037538;28;20174;-73
2023/05/14 03:00:48;;;;;;;14.10;12.70;;;12.90;99.90;;;;;;5054433;28;20242;-74
2023/05/14 03:03:14;;;;;;;13.17;11.87;;;13.00;99.90;;;;;;5054667;28;20177;-73
2023/05/14 03:05:39;;;;;;;15.43;14.03;;;13.00;99.90;;;;;;5054795;28;20194;-73
2023/05/14 03:08:05;;;;;;;16.63;15.03;;;13.10;99.90;;;;;;5055007;28;20182;-73
2023/05/14 03:10:31;;;;;;;12.53;11.33;;;13.20;99.90;;;;;;5055408;28;20560;-73
2023/05/14 03:12:57;;;;;;;13.47;12.20;;;13.20;99.90;;;;;;5054481;28;20702;-73
2023/05/14 03:15:22;;;;;;;14.10;12.87;;;13.20;99.90;;;;;;5055159;28;20532;-73
2023/05/14 03:17:48;;;;;;;14.60;13.30;;;13.00;99.90;;;;;;5054844;28;20242;-73
2023/05/14 03:20:14;;;;;;;11.73;10.77;;;13.00;99.90;;;;;;5055006;28;20582;-73
2023/05/14 03:22:39;;;;;;;12.53;11.40;;;13.10;99.90;;;;;;5036801;28;20575;-73
2023/05/14 03:25:05;;;;;;;14.97;13.40;;;13.20;99.90;;;;;;5037053;28;20181;-72
2023/05/14 03:27:32;;;;;;;11.20;10.30;;;13.20;99.90;;;;;;5054697;28;20178;-72
2023/05/14 03:29:57;;;;;;;12.03;10.37;;;13.30;99.90;;;;;;5054722;28;20224;-71
2023/05/14 03:32:23;;;;;;;12.43;11.33;;;13.30;99.90;;;;;;5036655;28;20966;-73
2023/05/14 03:34:48;;;;;;;10.50;9.63;;;13.40;99.90;;;;;;5054831;28;20188;-72
2023/05/14 03:37:14;;;;;;;11.53;10.50;;;13.50;99.90;;;;;;5054205;28;20191;-73
2023/05/14 03:39:40;;;;;;;10.73;9.73;;;13.50;99.90;;;;;;5036455;28;20166;-72
2023/05/14 03:42:05;;;;;;;10.40;9.47;;;13.50;99.90;;;;;;5054452;28;20691;-73
2023/05/14 03:44:31;;;;;;;10.10;9.30;;;13.50;99.90;;;;;;5054342;28;20670;-72
2023/05/14 03:46:56;;;;;;;10.87;9.97;;;13.50;99.90;;;;;;5039149;28;20245;-73
2023/05/14 03:49:22;;;;;;;13.37;12.17;;;13.50;99.90;;;;;;5034183;28;20185;-73
2023/05/14 03:51:47;;;;;;;11.20;10.10;;;13.50;99.90;;;;;;5033034;28;20171;-72
2023/05/14 03:54:13;;;;;;;11.20;10.10;;;13.50;99.90;;;;;;5034344;28;20192;-73
2023/05/14 03:56:38;;;;;;;11.50;10.50;;;13.50;99.90;;;;;;5034123;28;20246;-73
2023/05/14 03:59:04;;;;;;;11.90;10.80;;;13.60;99.90;;;;;;5031234;28;20225;-72
2023/05/14 04:01:29;;;;;;;12.47;11.27;;;13.60;99.90;;;;;;5033639;28;20203;-72
2023/05/14 04:03:55;;;;;;;10.37;9.47;;;13.60;99.90;;;;;;5033831;28;20171;-72
2023/05/14 04:06:20;;;;;;;10.43;9.50;;;13.70;99.90;;;;;;5033623;28;20274;-72
2023/05/14 04:08:46;;;;;;;11.50;10.40;;;13.60;99.90;;;;;;5034084;28;20257;-73
2023/05/14 04:11:11;;;;;;;10.20;9.20;;;13.60;99.90;;;;;;5034374;28;20240;-72
2023/05/14 04:13:37;;;;;;;11.03;9.93;;;13.60;99.90;;;;;;5034108;28;20171;-71
2023/05/14 04:16:03;;;;;;;11.67;10.47;;;13.60;99.90;;;;;;5061067;23;20215;-72
2023/05/14 04:18:28;;;;;;;12.33;11.03;;;13.60;99.90;;;;;;5053303;28;20213;-73
2023/05/14 04:20:54;;;;;;;12.30;11.20;;;13.60;99.90;;;;;;5035708;28;20214;-72
2023/05/14 04:23:20;;;;;;;10.00;9.10;;;13.70;99.90;;;;;;5052914;28;20170;-72
2023/05/14 04:25:46;;;;;;;11.90;10.70;;;13.70;99.90;;;;;;5053616;28;20197;-70
2023/05/14 04:28:11;;;;;;;10.13;9.23;;;13.70;99.90;;;;;;5035753;28;20418;-74
2023/05/14 04:30:37;;;;;;;11.67;10.70;;;13.70;99.90;;;;;;5035602;28;20207;-72
2023/05/14 04:33:02;;;;;;;13.37;12.23;;;13.70;99.90;;;;;;5053638;28;20172;-74
2023/05/14 04:35:28;;;;;;;11.23;10.30;;;13.70;99.90;;;;;;5026131;28;20166;-73
2023/05/14 04:37:54;;;;;;;12.20;11.10;;;13.80;99.90;;;;;;5031882;28;20182;-73
2023/05/14 04:40:19;;;;;;;11.03;10.03;;;13.70;99.90;;;;;;5033145;28;20174;-73
2023/05/14 04:42:45;;;;;;;10.80;9.70;;;13.50;99.90;;;;;;5015839;28;20183;-73
2023/05/14 04:45:12;;;;;;;12.90;11.73;;;13.60;99.90;;;;;;5033508;28;20175;-73
2023/05/14 04:47:37;;;;;;;10.43;9.53;;;13.50;99.90;;;;;;5015451;28;20665;-72
2023/05/14 04:50:03;;;;;;;9.97;9.07;;;13.30;99.90;;;;;;5033445;28;20479;-73
2023/05/14 04:52:29;;;;;;;11.00;10.10;;;13.30;99.90;;;;;;5051422;28;20257;-74
2023/05/14 04:54:55;;;;;;;12.00;10.90;;;13.30;99.90;;;;;;5053981;28;20483;-74
2023/05/14 04:57:21;;;;;;;11.60;9.77;;;13.40;99.90;;;;;;5035535;28;20193;-73
2023/05/14 04:59:46;;;;;;;11.30;10.27;;;13.30;99.90;;;;;;5053700;28;21029;-73
2023/05/14 05:02:12;;;;;;;9.57;8.77;;;13.20;99.90;;;;;;5053434;28;20579;-73
2023/05/14 05:04:38;;;;;;;13.03;11.83;;;13.40;99.90;;;;;;5035656;28;20673;-73
2023/05/14 05:07:04;;;;;;;12.33;11.23;;;13.40;99.90;;;;;;5053858;28;20192;-73
2023/05/14 05:09:30;;;;;;;10.03;9.23;;;13.40;99.90;;;;;;5035563;28;20547;-73
2023/05/14 05:11:56;;;;;;;11.37;10.17;;;13.10;99.90;;;;;;5053059;28;20408;-73
2023/05/14 05:14:21;;;;;;;12.67;11.47;;;12.80;99.90;;;;;;5053304;28;20415;-73
2023/05/14 05:16:47;;;;;;;11.47;10.40;;;12.70;99.90;;;;;;5035721;28;20210;-73
2023/05/14 05:19:12;;;;;;;11.77;10.67;;;12.90;99.90;;;;;;5034794;28;20179;-73
2023/05/14 05:21:39;;;;;;;12.60;11.40;;;13.10;99.90;;;;;;5052862;28;20180;-73
2023/05/14 05:24:06;;;;;;;11.27;10.17;;;13.20;99.90;;;;;;5053104;28;20171;-73
2023/05/14 05:26:31;;;;;;;11.30;10.30;;;13.10;99.90;;;;;;5053002;28;20425;-73
2023/05/14 05:28:57;;;;;;;11.93;10.80;;;13.30;99.90;;;;;;5053062;28;20409;-73
2023/05/14 05:31:22;;;;;;;12.27;11.20;;;13.40;99.90;;;;;;5024576;28;20230;-73
2023/05/14 05:33:48;;;;;;;11.43;10.27;;;13.50;99.90;;;;;;5013023;28;20609;-73
2023/05/14 05:36:14;;;;;;;11.13;10.13;;;13.50;99.90;;;;;;5016148;28;20181;-73
2023/05/14 05:38:39;;;;;;;11.37;10.20;;;13.10;99.90;;;;;;5017179;28;20156;-73
2023/05/14 05:41:05;;;;;;;10.67;9.67;;;13.00;99.90;;;;;;4999685;28;20173;-73
2023/05/14 05:43:32;;;;;;;12.33;11.13;;;12.80;99.90;;;;;;5017101;28;20178;-73
2023/05/14 05:45:59;;;;;;;13.43;12.30;;;13.00;99.90;;;;;;5017091;28;20568;-73
2023/05/14 05:48:24;;;;;;;11.93;10.83;;;13.20;99.90;;;;;;5016975;28;20409;-71
2023/05/14 05:50:50;;;;;;;12.23;11.00;;;13.00;99.90;;;;;;5007207;28;21050;-73
2023/05/14 05:53:15;;;;;;;10.37;9.47;;;12.90;99.90;;;;;;5038556;28;20173;-73
2023/05/14 05:55:41;;;;;;;11.83;9.93;;;13.00;99.90;;;;;;5056767;28;20209;-73
2023/05/14 05:58:07;;;;;;;11.07;10.03;;;13.00;99.90;;;;;;5056486;28;20167;-73
2023/05/14 06:00:32;;;;;;;11.73;10.53;;;13.20;99.90;;;;;;5056431;28;20705;-73
2023/05/14 06:02:58;;;;;;;12.10;10.90;;;13.50;99.90;;;;;;5049696;28;20171;-73
2023/05/14 06:05:24;;;;;;;11.20;10.10;;;13.60;99.90;;;;;;5016379;28;20174;-73
2023/05/14 06:07:50;;;;;;;11.37;10.27;;;13.60;99.90;;;;;;5016859;28;20194;-73
2023/05/14 06:10:15;;;;;;;10.67;9.80;;;13.50;99.90;;;;;;5016496;28;20608;-73
2023/05/14 06:12:41;;;;;;;11.53;10.53;;;13.60;99.90;;;;;;4998910;28;20177;-73
2023/05/14 06:15:07;;;;;;;11.13;10.03;;;13.40;99.90;;;;;;5016378;28;20174;-73
2023/05/14 06:17:32;;;;;;;11.57;10.50;;;13.50;99.90;;;;;;5015975;28;20236;-73
2023/05/14 06:19:58;;;;;;;11.83;10.80;;;13.70;99.90;;;;;;4998682;28;20453;-73
2023/05/14 06:22:24;;;;;;;11.60;10.40;;;14.00;99.90;;;;;;5050502;28;20235;-72
2023/05/14 06:24:49;;;;;;;12.83;11.40;;;13.60;99.90;;;;;;5038125;28;20173;-73
2023/05/14 06:27:15;;;;;;;12.43;11.27;;;13.40;99.90;;;;;;5055823;28;20563;-72
2023/05/14 06:29:40;;;;;;;11.67;10.57;;;13.50;99.90;;;;;;5056404;28;20584;-73
2023/05/14 06:32:06;;;;;;;12.67;11.50;;;13.60;99.90;;;;;;5039662;28;20168;-73
2023/05/14 06:34:32;;;;;;;10.90;9.97;;;13.70;99.90;;;;;;5033874;28;20175;-73
2023/05/14 06:36:58;;;;;;;11.27;10.07;;;13.90;99.90;;;;;;5035423;28;20420;-73
2023/05/14 06:39:23;;;;;;;9.23;8.33;;;14.10;99.90;;;;;;5017891;28;20171;-73
2023/05/14 06:41:49;;;;;;;10.67;9.73;;;14.20;99.90;;;;;;5033818;28;20207;-73
2023/05/14 06:44:18;;;;;;;10.17;9.27;;;14.20;99.90;;;;;;5036486;28;20167;-73
2023/05/14 06:46:43;;;;;;;12.90;11.70;;;13.70;99.90;;;;;;5029455;28;20224;-72
2023/05/14 06:49:09;;;;;;;9.93;9.03;;;14.10;99.90;;;;;;5032062;28;20501;-73
2023/05/14 06:51:34;;;;;;;11.47;10.37;;;14.40;99.90;;;;;;5035372;28;20188;-73
2023/05/14 06:54:00;;;;;;;10.93;9.90;;;14.50;99.90;;;;;;5035588;28;20164;-72
2023/05/14 06:56:25;;;;;;;10.53;9.53;;;14.70;99.90;;;;;;5035262;28;20189;-73
2023/05/14 06:58:51;;;;;;;12.13;10.67;;;14.60;99.90;;;;;;5035648;28;20166;-73
2023/05/14 07:01:17;;;;;;;12.33;11.27;;;14.40;99.90;;;;;;5035395;28;20179;-73
2023/05/14 07:03:42;;;;;;;9.80;8.93;;;14.20;99.90;;;;;;5035424;28;20175;-72
2023/05/14 07:06:08;;;;;;;11.80;10.67;;;14.50;99.90;;;;;;5035299;28;20221;-74
2023/05/14 07:08:33;;;;;;;12.00;10.70;;;14.80;99.90;;;;;;5035185;28;20281;-73
2023/05/14 07:10:59;;;;;;;10.00;9.10;;;14.40;99.90;;;;;;5035015;28;20194;-74
2023/05/14 07:13:25;;;;;;;10.67;9.67;;;14.60;99.90;;;;;;5035044;28;20611;-73
2023/05/14 07:15:51;;;;;;;11.33;10.23;;;14.80;99.90;;;;;;5035010;28;20203;-73
2023/05/14 07:18:17;;;;;;;11.90;10.80;;;15.10;99.90;;;;;;5034677;28;20883;-73
2023/05/14 07:20:43;;;;;;;11.17;9.97;;;15.30;99.90;;;;;;5038169;28;20477;-73
2023/05/14 07:23:08;;;;;;;10.87;9.80;;;15.30;99.90;;;;;;5054876;28;20661;-74
2023/05/14 07:25:34;;;;;;;12.77;11.57;;;15.10;99.90;;;;;;5055098;28;20176;-73
2023/05/14 07:27:59;;;;;;;11.30;10.20;;;14.70;99.90;;;;;;5054735;28;20165;-74
2023/05/14 07:30:25;;;;;;;11.13;10.13;;;14.60;99.90;;;;;;5054858;28;20187;-73
2023/05/14 07:32:50;;;;;;;10.47;9.57;;;15.00;99.90;;;;;;5054456;28;20163;-73
2023/05/14 07:35:16;;;;;;;11.57;10.50;;;15.20;99.90;;;;;;5054773;28;20220;-72
2023/05/14 07:37:42;;;;;;;11.70;10.70;;;15.50;99.90;;;;;;5054314;28;20705;-73
2023/05/14 07:40:08;;;;;;;13.77;11.80;;;15.50;99.90;;;;;;5054551;28;20166;-73
2023/05/14 07:42:34;;;;;;;11.50;10.50;;;15.40;99.90;;;;;;5054356;28;20540;-73
2023/05/14 07:45:00;;;;;;;10.50;9.50;;;15.40;99.90;;;;;;5054456;28;20398;-73
2023/05/14 07:47:25;;;;;;;34.90;31.20;;;15.40;99.90;;;;;;5054312;28;20432;-73
2023/05/14 07:49:55;;;;;;;31.70;28.57;;;15.40;99.90;;;;;;5054028;28;20193;-73
2023/05/14 07:52:21;;;;;;;10.50;9.60;;;15.60;99.90;;;;;;5035945;28;20172;-73
2023/05/14 07:54:46;;;;;;;11.57;10.53;;;15.30;99.90;;;;;;5054311;28;20459;-73
2023/05/14 07:57:12;;;;;;;23.23;21.00;;;15.10;99.90;;;;;;5054124;28;20420;-74
2023/05/14 07:59:37;;;;;;;11.03;9.93;;;15.20;99.90;;;;;;5054074;28;20168;-73
2023/05/14 08:02:03;;;;;;;12.50;11.40;;;15.50;99.90;;;;;;5054343;28;20575;-72
2023/05/14 08:04:28;;;;;;;11.30;10.30;;;15.50;99.90;;;;;;5052880;28;20408;-76
2023/05/14 08:06:55;;;;;;;12.47;11.30;;;15.80;99.90;;;;;;5054019;28;20661;-74
2023/05/14 08:09:20;;;;;;;11.40;10.40;;;15.70;99.90;;;;;;5054099;28;20245;-74
2023/05/14 08:11:46;;;;;;;11.30;10.30;;;15.60;99.90;;;;;;5053788;28;20560;-73
2023/05/14 08:14:11;;;;;;;10.70;9.80;;;15.20;99.90;;;;;;5054020;28;20170;-73
2023/05/14 08:16:37;;;;;;;12.83;10.83;;;15.60;99.90;;;;;;5053583;28;20207;-75
2023/05/14 08:19:03;;;;;;;11.83;10.70;;;16.00;99.90;;;;;;5053493;28;20567;-76
2023/05/14 08:21:28;;;;;;;12.77;11.57;;;16.20;99.90;;;;;;5053704;28;20178;-74
2023/05/14 08:23:54;;;;;;;12.07;10.97;;;16.00;99.90;;;;;;5054107;28;20567;-74
2023/05/14 08:26:20;;;;;;;11.70;10.73;;;15.80;99.90;;;;;;5053708;28;20189;-75
2023/05/14 08:28:46;;;;;;;11.03;10.13;;;15.80;99.90;;;;;;5053914;28;20166;-75
2023/05/14 08:31:13;;;;;;;12.03;10.93;;;16.10;99.90;;;;;;5054265;28;20518;-75
2023/05/14 08:33:39;;;;;;;10.60;9.63;;;16.60;99.90;;;;;;5053572;28;20188;-75
2023/05/14 08:36:06;;;;;;;12.23;11.13;;;17.00;99.90;;;;;;5053596;28;20500;-75
2023/05/14 08:38:31;;;;;;;11.30;10.30;;;17.10;99.90;;;;;;5053436;28;20246;-76
2023/05/14 08:40:58;;;;;;;10.83;9.83;;;17.20;99.90;;;;;;5053468;28;20463;-75
2023/05/14 08:43:36;;;;;;;14.07;12.67;;;17.30;99.90;;;;;;5048350;28;20225;-76
2023/05/14 08:46:04;;;;;;;11.37;10.37;;;17.30;99.90;;;;;;5033724;28;20772;-75
2023/05/14 08:48:33;;;;;;;13.13;11.10;;;17.30;99.90;;;;;;5033659;28;20417;-75
2023/05/14 08:50:59;;;;;;;10.60;9.50;;;17.50;99.90;;;;;;5036717;28;20457;-75
2023/05/14 08:53:25;;;;;;;11.13;10.13;;;18.10;99.90;;;;;;5023251;28;20442;-75
2023/05/14 08:55:53;;;;;;;12.13;11.07;;;17.90;99.90;;;;;;5015198;28;20469;-76
2023/05/14 08:58:18;;;;;;;12.53;11.27;;;17.80;99.90;;;;;;5015000;28;20179;-76
2023/05/14 09:00:44;;;;;;;13.03;11.70;;;17.50;99.90;;;;;;5013547;28;20410;-75
2023/05/14 09:03:11;;;;;;;12.57;11.47;;;17.60;99.90;;;;;;5013147;28;20508;-76
2023/05/14 09:05:37;;;;;;;12.17;11.07;;;17.00;99.90;;;;;;5013811;28;20203;-76
2023/05/14 09:08:02;;;;;;;12.97;11.87;;;16.80;99.90;;;;;;5013271;28;20474;-75
2023/05/14 09:10:28;;;;;;;13.40;12.00;;;17.00;99.90;;;;;;5012784;28;20537;-75
2023/05/14 09:12:54;;;;;;;14.40;13.10;;;17.30;99.90;;;;;;5013300;28;20160;-74
2023/05/14 09:15:19;;;;;;;13.00;11.70;;;17.50;99.90;;;;;;5013183;28;20625;-72
2023/05/14 09:17:47;;;;;;;11.60;10.60;;;17.40;99.90;;;;;;5013241;28;20175;-75
2023/05/14 09:20:14;;;;;;;12.90;11.80;;;17.50;99.90;;;;;;5013007;28;20628;-76
2023/05/14 09:22:40;;;;;;;13.83;12.43;;;17.70;99.90;;;;;;5033675;28;20535;-75
2023/05/14 09:25:08;;;;;;;13.50;12.10;;;17.70;99.90;;;;;;5053585;28;20885;-75
2023/05/14 09:27:35;;;;;;;13.10;12.00;;;17.70;99.90;;;;;;5052956;28;20905;-75
2023/05/14 09:30:11;;;;;;;13.43;12.30;;;17.40;99.90;;;;;;5052966;28;20453;-75
2023/05/14 09:32:44;;;;;;;12.17;11.10;;;17.50;99.90;;;;;;5053144;28;20416;-75
2023/05/14 09:35:16;;;;;;;11.87;10.77;;;17.60;99.90;;;;;;5052743;28;20382;-75
2023/05/14 09:37:45;;;;;;;13.13;11.90;;;17.80;99.90;;;;;;5052513;28;20389;-75
2023/05/14 09:40:12;;;;;;;12.77;11.67;;;17.70;99.90;;;;;;5052832;28;20410;-75
2023/05/14 09:42:38;;;;;;;13.60;12.40;;;17.80;99.90;;;;;;5052745;28;20487;-76
2023/05/14 09:45:05;;;;;;;12.00;10.73;;;17.80;99.90;;;;;;5053198;28;20795;-76
2023/05/14 09:47:31;;;;;;;11.43;10.23;;;17.90;99.90;;;;;;5052516;28;20513;-76
2023/05/14 09:49:57;;;;;;;9.93;9.03;;;18.10;99.90;;;;;;5034471;28;20531;-76
2023/05/14 09:52:23;;;;;;;10.40;9.40;;;18.30;99.90;;;;;;5051161;28;20170;-76
2023/05/14 09:54:52;;;;;;;11.07;10.17;;;17.90;99.90;;;;;;5052747;28;20159;-75
2023/05/14 09:57:18;;;;;;;11.93;10.73;;;18.00;99.90;;;;;;5034699;28;20429;-75
2023/05/14 09:59:44;;;;;;;12.10;11.00;;;17.60;99.90;;;;;;5052501;28;20459;-76
2023/05/14 10:02:21;;;;;;;12.70;11.27;;;17.50;99.90;;;;;;5052574;28;20397;-76
2023/05/14 10:04:49;;;;;;;11.67;10.63;;;17.50;99.90;;;;;;5052456;28;20197;-76
2023/05/14 10:07:18;;;;;;;10.50;9.60;;;17.50;99.90;;;;;;5052354;28;21002;-75
2023/05/14 10:09:45;;;;;;;12.47;11.33;;;17.90;99.90;;;;;;5052308;28;20401;-76
2023/05/14 10:12:13;;;;;;;11.50;10.20;;;17.90;99.90;;;;;;5034591;28;20806;-75
2023/05/14 10:14:41;;;;;;;10.77;9.80;;;17.70;99.90;;;;;;5034592;28;20444;-75
2023/05/14 10:17:16;;;;;;;10.80;9.87;;;17.90;99.90;;;;;;5065067;23;20489;-75
2023/05/14 10:19:46;;;;;;;9.97;9.07;;;18.00;99.90;;;;;;5052321;28;20503;-75
2023/05/14 10:22:13;;;;;;;9.93;8.93;;;18.10;99.90;;;;;;5053397;28;20404;-76
2023/05/14 10:24:40;;;;;;;9.67;8.70;;;17.80;99.90;;;;;;5056001;28;20396;-76
2023/05/14 10:27:06;;;;;;;9.57;8.67;;;17.60;99.90;;;;;;5055801;28;20865;-77
2023/05/14 10:29:33;;;;;;;9.00;8.30;;;17.60;99.90;;;;;;5055733;28;20803;-76
2023/05/14 10:32:06;;;;;;;9.53;8.53;;;17.90;99.90;;;;;;5037757;28;20441;-76
2023/05/14 10:34:40;;;;;;;8.90;7.67;;;18.00;99.90;;;;;;5048383;28;20413;-76
2023/05/14 10:37:17;;;;;;;9.70;8.90;;;18.10;99.90;;;;;;5035376;28;20913;-76
2023/05/14 10:39:50;;;;;;;10.07;9.17;;;18.20;99.90;;;;;;5035660;28;20410;-76
2023/05/14 10:42:18;;;;;;;8.50;7.70;;;18.70;99.90;;;;;;5035603;28;20932;-76
2023/05/14 10:45:11;;;;;;;9.30;8.50;;;19.00;99.90;;;;;;5017894;28;20421;-76
2023/05/14 10:47:38;;;;;;;8.77;7.87;;;19.30;99.90;;;;;;5032208;28;20573;-77
2023/05/14 10:50:06;;;;;;;8.97;8.10;;;19.30;99.90;;;;;;5035682;28;20454;-77
2023/05/14 10:52:32;;;;;;;8.90;8.20;;;18.80;99.90;;;;;;5053901;28;20789;-77
2023/05/14 10:55:01;;;;;;;8.67;7.83;;;19.00;99.90;;;;;;5035579;28;20839;-75
2023/05/14 10:57:29;;;;;;;8.97;8.17;;;19.60;99.90;;;;;;5023703;28;20466;-76
2023/05/14 10:59:56;;;;;;;9.53;8.73;;;20.30;99.90;;;;;;5015098;28;20421;-76
2023/05/14 11:02:35;;;;;;;8.07;7.27;;;20.80;99.90;;;;;;5015065;28;20409;-75
2023/05/14 11:05:04;;;;;;;7.93;6.00;;;20.70;99.90;;;;;;5014497;28;20387;-75
2023/05/14 11:07:31;;;;;;;8.73;7.90;;;20.10;99.90;;;;;;5015011;28;20936;-74
2023/05/14 11:10:20;;;;;;;9.23;8.43;;;20.00;99.90;;;;;;4997241;28;20458;-76
2023/05/14 11:12:47;;;;;;;8.83;8.03;;;19.50;99.90;;;;;;5015025;28;20391;-76
2023/05/14 11:15:20;;;;;;;10.80;9.77;;;19.40;99.90;;;;;;5015660;28;20399;-76
2023/05/14 11:17:47;;;;;;;9.60;8.80;;;18.70;99.90;;;;;;5015144;28;20819;-75
2023/05/14 11:20:13;;;;;;;10.20;9.30;;;18.40;99.90;;;;;;5014804;28;20980;-76
2023/05/14 11:22:41;;;;;;;9.40;8.53;;;18.30;99.90;;;;;;5053411;28;20401;-76
2023/05/14 11:25:07;;;;;;;8.83;8.10;;;18.20;99.90;;;;;;5054974;28;20401;-76
2023/05/14 11:27:34;;;;;;;10.20;9.30;;;18.00;99.90;;;;;;5036599;28;20429;-76
2023/05/14 11:30:00;;;;;;;10.63;9.53;;;18.50;99.90;;;;;;5054136;28;20540;-77
2023/05/14 11:32:26;;;;;;;8.73;7.93;;;19.90;99.90;;;;;;5053656;28;20441;-77
2023/05/14 11:34:52;;;;;;;8.60;7.80;;;20.60;99.90;;;;;;5054358;28;20170;-77
2023/05/14 11:37:18;;;;;;;8.10;7.50;;;22.90;99.90;;;;;;5054256;28;20421;-76
2023/05/14 11:39:51;;;;;;;6.70;6.20;;;23.70;99.10;;;;;;5054630;28;20237;-77
2023/05/14 11:42:18;;;;;;;6.90;6.40;;;25.30;97.50;;;;;;5054735;28;20184;-77
2023/05/14 11:44:47;;;;;;;9.30;8.50;;;27.20;94.70;;;;;;5054232;28;20407;-77
2023/05/14 11:47:13;;;;;;;7.90;7.10;;;27.80;91.20;;;;;;5054217;28;20421;-75
2023/05/14 11:49:39;;;;;;;7.63;7.03;;;25.90;93.40;;;;;;5053941;28;20496;-75
2023/05/14 11:52:07;;;;;;;7.67;7.00;;;23.20;96.20;;;;;;5035727;28;20421;-74
2023/05/14 11:54:33;;;;;;;8.60;7.73;;;21.10;99.50;;;;;;5054267;28;20170;-74
2023/05/14 11:57:01;;;;;;;8.53;7.80;;;20.70;99.90;;;;;;5053621;28;20864;-73
2023/05/14 11:59:30;;;;;;;8.73;7.93;;;20.10;99.90;;;;;;5054171;28;20569;-74
2023/05/14 12:01:57;;;;;;;8.20;7.40;;;19.70;99.90;;;;;;5054663;28;20397;-74
2023/05/14 12:04:23;;;;;;;8.43;7.70;;;19.70;99.90;;;;;;5053851;28;20398;-75
2023/05/14 12:06:52;;;;;;;7.77;7.13;;;20.20;99.90;;;;;;5053838;28;20425;-74
2023/05/14 12:09:19;;;;;;;7.07;6.47;;;20.90;99.90;;;;;;5054210;28;20779;-74
2023/05/14 12:11:45;;;;;;;7.50;6.83;;;22.30;99.90;;;;;;5053974;28;20474;-73
2023/05/14 12:14:15;;;;;;;7.67;7.07;;;22.10;99.50;;;;;;5053864;28;20405;-74
2023/05/14 12:16:41;;;;;;;7.20;6.60;;;20.90;99.90;;;;;;5053708;28;20460;-75
2023/05/14 12:19:09;;;;;;;6.20;5.70;;;20.30;99.90;;;;;;5053651;28;20500;-73
2023/05/14 12:21:35;;;;;;;7.57;6.87;;;20.90;99.90;;;;;;5053463;28;20409;-73
2023/05/14 12:24:01;;;;;;;6.57;6.00;;;23.30;99.90;;;;;;5053722;28;20401;-73
2023/05/14 12:26:27;;;;;;;6.10;5.60;;;24.40;96.90;;;;;;5035627;28;20254;-74
2023/05/14 12:29:00;;;;;;;6.13;5.63;;;23.40;97.70;;;;;;5053613;28;20159;-73
2023/05/14 12:31:33;;;;;;;6.37;5.77;;;21.80;98.80;;;;;;5053435;28;20455;-73